sensor_id;sensor_type;location;lat;lon;timestamp;pressure;altitude;pressure_sealevel;temperature;humidity
64025;BME280;50266;57.446;26.936;2023-04-15T00:00:27;100097.61;;;4.86;100.0
64025;BME280;50266;57.446;26.936;2023-04-15T00:01:27;100103.86;;;4.88;100.0
64025;BME280;50266;57.446;26.936;2023-04-15T00:02:27;100101.05;;;4.78;100.0
64025;BME280;50266;57.446;26.936;2023-04-15T00:03:27;100101.94;;;4.75;100.0
64025;BME280;50266;57.446;26.936;2023-04-15T00:04:27;100101.65;;;4.76;100.0
64025;BME280;50266;57.446;26.936;2023-04-15T00:05:30;100098.95;;;4.79;100.0
64025;BME280;50266;57.446;26.936;2023-04-15T00:06:27;100100.2;;;4.76;100.0
64025;BME280;50266;57.446;26.936;2023-04-15T00:07:27;100098.34;;;4.78;100.0
64025;BME280;50266;57.446;26.936;2023-04-15T00:08:27;100102.19;;;4.74;100.0
64025;BME280;50266;57.446;26.936;2023-04-15T00:09:27;100102.62;;;4.75;100.0
64025;BME280;50266;57.446;26.936;2023-04-15T00:10:27;100099.17;;;4.75;100.0
64025;BME280;50266;57.446;26.936;2023-04-15T00:11:27;100098.97;;;4.77;100.0
64025;BME280;50266;57.446;26.936;2023-04-15T00:12:27;100100.53;;;4.76;100.0
64025;BME280;50266;57.446;26.936;2023-04-15T00:13:27;100101.95;;;4.73;100.0
64025;BME280;50266;57.446;26.936;2023-04-15T00:14:27;100104.89;;;4.77;100.0
64025;BME280;50266;57.446;26.936;2023-04-15T00:15:27;100105.01;;;4.7;100.0
64025;BME280;50266;57.446;26.936;2023-04-15T00:16:28;100106.1;;;4.65;100.0
64025;BME280;50266;57.446;26.936;2023-04-15T00:17:28;100099.76;;;4.63;100.0
64025;BME280;50266;57.446;26.936;2023-04-15T00:18:27;100104.83;;;4.69;100.0
64025;BME280;50266;57.446;26.936;2023-04-15T00:19:28;100095.66;;;4.7;100.0
64025;BME280;50266;57.446;26.936;2023-04-15T00:20:27;100098.66;;;4.67;100.0
64025;BME280;50266;57.446;26.936;2023-04-15T00:21:27;100099.67;;;4.64;100.0
64025;BME280;50266;57.446;26.936;2023-04-15T00:22:28;100105.89;;;4.67;100.0
64025;BME280;50266;57.446;26.936;2023-04-15T00:23:28;100108.62;;;4.64;100.0
64025;BME280;50266;57.446;26.936;2023-04-15T00:24:28;100112.63;;;4.63;100.0
64025;BME280;50266;57.446;26.936;2023-04-15T00:25:28;100114.69;;;4.62;100.0
64025;BME280;50266;57.446;26.936;2023-04-15T00:26:28;100111.36;;;4.62;100.0
64025;BME280;50266;57.446;26.936;2023-04-15T00:27:28;100115.0;;;4.58;100.0
64025;BME280;50266;57.446;26.936;2023-04-15T00:28:28;100110.05;;;4.56;100.0
64025;BME280;50266;57.446;26.936;2023-04-15T00:29:28;100111.36;;;4.56;100.0
64025;BME280;50266;57.446;26.936;2023-04-15T00:30:28;100115.97;;;4.56;100.0
64025;BME280;50266;57.446;26.936;2023-04-15T00:31:28;100118.2;;;4.59;100.0
64025;BME280;50266;57.446;26.936;2023-04-15T00:32:28;100111.59;;;4.56;100.0
64025;BME280;50266;57.446;26.936;2023-04-15T00:33:28;100116.09;;;4.56;100.0
64025;BME280;50266;57.446;26.936;2023-04-15T00:34:28;100118.27;;;4.47;100.0
64025;BME280;50266;57.446;26.936;2023-04-15T00:35:28;100118.62;;;4.47;100.0
64025;BME280;50266;57.446;26.936;2023-04-15T00:36:28;100118.42;;;4.49;100.0
64025;BME280;50266;57.446;26.936;2023-04-15T00:37:28;100117.08;;;4.5;100.0
64025;BME280;50266;57.446;26.936;2023-04-15T00:38:28;100119.36;;;4.51;100.0
64025;BME280;50266;57.446;26.936;2023-04-15T00:39:28;100118.47;;;4.48;100.0
64025;BME280;50266;57.446;26.936;2023-04-15T00:40:28;100118.67;;;4.54;100.0
64025;BME280;50266;57.446;26.936;2023-04-15T00:41:28;100123.67;;;4.46;100.0
64025;BME280;50266;57.446;26.936;2023-04-15T00:42:28;100122.3;;;4.46;100.0
64025;BME280;50266;57.446;26.936;2023-04-15T00:43:28;100119.27;;;4.43;100.0
64025;BME280;50266;57.446;26.936;2023-04-15T00:44:28;100120.91;;;4.43;100.0
64025;BME280;50266;57.446;26.936;2023-04-15T00:45:28;100119.34;;;4.39;100.0
64025;BME280;50266;57.446;26.936;2023-04-15T00:46:28;100120.55;;;4.36;100.0
64025;BME280;50266;57.446;26.936;2023-04-15T00:47:28;100120.01;;;4.35;100.0
64025;BME280;50266;57.446;26.936;2023-04-15T00:48:28;100118.52;;;4.33;100.0
64025;BME280;50266;57.446;26.936;2023-04-15T00:49:28;100118.83;;;4.3;100.0
64025;BME280;50266;57.446;26.936;2023-04-15T00:50:28;100119.83;;;4.31;100.0
64025;BME280;50266;57.446;26.936;2023-04-15T00:51:28;100123.53;;;4.32;100.0
64025;BME280;50266;57.446;26.936;2023-04-15T00:52:28;100119.23;;;4.31;100.0
64025;BME280;50266;57.446;26.936;2023-04-15T00:53:28;100125.21;;;4.33;100.0
64025;BME280;50266;57.446;26.936;2023-04-15T00:54:28;100122.88;;;4.32;100.0
64025;BME280;50266;57.446;26.936;2023-04-15T00:55:28;100125.64;;;4.35;100.0
64025;BME280;50266;57.446;26.936;2023-04-15T00:56:28;100122.56;;;4.34;100.0
64025;BME280;50266;57.446;26.936;2023-04-15T00:57:28;100123.92;;;4.3;100.0
64025;BME280;50266;57.446;26.936;2023-04-15T00:58:28;100125.17;;;4.25;100.0
64025;BME280;50266;57.446;26.936;2023-04-15T00:59:29;100127.06;;;4.24;100.0
64025;BME280;50266;57.446;26.936;2023-04-15T01:00:28;100124.59;;;4.26;100.0
64025;BME280;50266;57.446;26.936;2023-04-15T01:01:28;100126.8;;;4.28;100.0
64025;BME280;50266;57.446;26.936;2023-04-15T01:02:28;100124.09;;;4.23;100.0
64025;BME280;50266;57.446;26.936;2023-04-15T01:03:28;100123.0;;;4.24;100.0
64025;BME280;50266;57.446;26.936;2023-04-15T01:04:28;100126.15;;;4.22;100.0
64025;BME280;50266;57.446;26.936;2023-04-15T01:05:28;100128.52;;;4.19;100.0
64025;BME280;50266;57.446;26.936;2023-04-15T01:06:29;100125.77;;;4.18;100.0
64025;BME280;50266;57.446;26.936;2023-04-15T01:07:28;100129.82;;;4.16;100.0
64025;BME280;50266;57.446;26.936;2023-04-15T01:08:28;100129.27;;;4.14;100.0
64025;BME280;50266;57.446;26.936;2023-04-15T01:09:28;100127.88;;;4.07;100.0
64025;BME280;50266;57.446;26.936;2023-04-15T01:10:28;100126.73;;;4.05;100.0
64025;BME280;50266;57.446;26.936;2023-04-15T01:11:29;100130.89;;;4.12;100.0
64025;BME280;50266;57.446;26.936;2023-04-15T01:12:28;100128.71;;;4.12;100.0
64025;BME280;50266;57.446;26.936;2023-04-15T01:13:28;100130.86;;;4.1;100.0
64025;BME280;50266;57.446;26.936;2023-04-15T01:14:28;100126.8;;;4.1;100.0
64025;BME280;50266;57.446;26.936;2023-04-15T01:15:28;100127.7;;;4.05;100.0
64025;BME280;50266;57.446;26.936;2023-04-15T01:16:28;100128.66;;;4.06;100.0
64025;BME280;50266;57.446;26.936;2023-04-15T01:17:28;100125.73;;;4.05;100.0
64025;BME280;50266;57.446;26.936;2023-04-15T01:18:29;100124.11;;;4.1;100.0
64025;BME280;50266;57.446;26.936;2023-04-15T01:19:28;100126.71;;;4.15;100.0
64025;BME280;50266;57.446;26.936;2023-04-15T01:20:28;100125.86;;;4.1;100.0
64025;BME280;50266;57.446;26.936;2023-04-15T01:21:28;100125.67;;;4.11;100.0
64025;BME280;50266;57.446;26.936;2023-04-15T01:22:28;100123.89;;;4.1;100.0
64025;BME280;50266;57.446;26.936;2023-04-15T01:23:29;100120.98;;;4.1;100.0
64025;BME280;50266;57.446;26.936;2023-04-15T01:24:28;100125.99;;;4.06;100.0
64025;BME280;50266;57.446;26.936;2023-04-15T01:25:32;100124.12;;;4.04;100.0
64025;BME280;50266;57.446;26.936;2023-04-15T01:26:29;100126.75;;;4.04;100.0
64025;BME280;50266;57.446;26.936;2023-04-15T01:27:29;100120.98;;;4.03;100.0
64025;BME280;50266;57.446;26.936;2023-04-15T01:28:29;100124.02;;;4.06;100.0
64025;BME280;50266;57.446;26.936;2023-04-15T01:29:31;100123.43;;;4.03;100.0
64025;BME280;50266;57.446;26.936;2023-04-15T01:30:32;100126.97;;;4.08;100.0
64025;BME280;50266;57.446;26.936;2023-04-15T01:31:29;100124.93;;;4.03;100.0
64025;BME280;50266;57.446;26.936;2023-04-15T01:32:29;100124.3;;;4.07;100.0
64025;BME280;50266;57.446;26.936;2023-04-15T01:33:29;100125.17;;;4.04;100.0
64025;BME280;50266;57.446;26.936;2023-04-15T01:34:29;100126.58;;;4.03;100.0
64025;BME280;50266;57.446;26.936;2023-04-15T01:35:29;100125.99;;;4.06;100.0
64025;BME280;50266;57.446;26.936;2023-04-15T01:36:29;100126.16;;;4.06;100.0
64025;BME280;50266;57.446;26.936;2023-04-15T01:37:29;100126.33;;;4.02;100.0
64025;BME280;50266;57.446;26.936;2023-04-15T01:38:29;100125.34;;;4.0;100.0
64025;BME280;50266;57.446;26.936;2023-04-15T01:39:29;100122.94;;;3.95;100.0
64025;BME280;50266;57.446;26.936;2023-04-15T01:40:29;100125.38;;;4.0;100.0
64025;BME280;50266;57.446;26.936;2023-04-15T01:41:29;100127.85;;;4.0;100.0
64025;BME280;50266;57.446;26.936;2023-04-15T01:42:29;100124.07;;;4.0;100.0
64025;BME280;50266;57.446;26.936;2023-04-15T01:43:29;100124.52;;;4.0;100.0
64025;BME280;50266;57.446;26.936;2023-04-15T01:44:29;100125.91;;;3.97;100.0
64025;BME280;50266;57.446;26.936;2023-04-15T01:45:29;100126.82;;;4.02;100.0
64025;BME280;50266;57.446;26.936;2023-04-15T01:46:29;100125.91;;;3.95;100.0
64025;BME280;50266;57.446;26.936;2023-04-15T01:47:29;100124.11;;;3.98;100.0
64025;BME280;50266;57.446;26.936;2023-04-15T01:48:29;100127.71;;;3.93;100.0
64025;BME280;50266;57.446;26.936;2023-04-15T01:49:29;100124.08;;;3.96;100.0
64025;BME280;50266;57.446;26.936;2023-04-15T01:50:29;100127.67;;;3.94;100.0
64025;BME280;50266;57.446;26.936;2023-04-15T01:51:29;100131.22;;;3.92;100.0
64025;BME280;50266;57.446;26.936;2023-04-15T01:52:29;100127.88;;;3.91;100.0
64025;BME280;50266;57.446;26.936;2023-04-15T01:53:29;100125.61;;;3.93;100.0
64025;BME280;50266;57.446;26.936;2023-04-15T01:54:29;100124.61;;;3.9;100.0
64025;BME280;50266;57.446;26.936;2023-04-15T01:55:29;100124.37;;;3.87;100.0
64025;BME280;50266;57.446;26.936;2023-04-15T01:56:29;100128.97;;;3.87;100.0
64025;BME280;50266;57.446;26.936;2023-04-15T01:57:29;100129.3;;;3.87;100.0
64025;BME280;50266;57.446;26.936;2023-04-15T01:58:29;100128.11;;;3.82;100.0
64025;BME280;50266;57.446;26.936;2023-04-15T01:59:29;100130.02;;;3.83;100.0
64025;BME280;50266;57.446;26.936;2023-04-15T02:00:29;100131.34;;;3.85;100.0
64025;BME280;50266;57.446;26.936;2023-04-15T02:01:29;100132.12;;;3.82;100.0
64025;BME280;50266;57.446;26.936;2023-04-15T02:02:29;100130.68;;;3.87;100.0
64025;BME280;50266;57.446;26.936;2023-04-15T02:03:29;100127.2;;;3.85;100.0
64025;BME280;50266;57.446;26.936;2023-04-15T02:04:29;100129.91;;;3.86;100.0
64025;BME280;50266;57.446;26.936;2023-04-15T02:05:29;100134.59;;;3.89;100.0
64025;BME280;50266;57.446;26.936;2023-04-15T02:06:29;100132.02;;;3.88;100.0
64025;BME280;50266;57.446;26.936;2023-04-15T02:07:29;100130.64;;;3.86;100.0
64025;BME280;50266;57.446;26.936;2023-04-15T02:08:29;100129.95;;;3.87;100.0
64025;BME280;50266;57.446;26.936;2023-04-15T02:09:29;100135.03;;;3.84;100.0
64025;BME280;50266;57.446;26.936;2023-04-15T02:10:29;100136.43;;;3.83;100.0
64025;BME280;50266;57.446;26.936;2023-04-15T02:11:29;100137.25;;;3.85;100.0
64025;BME280;50266;57.446;26.936;2023-04-15T02:12:29;100132.09;;;3.83;100.0
64025;BME280;50266;57.446;26.936;2023-04-15T02:13:29;100133.09;;;3.79;100.0
64025;BME280;50266;57.446;26.936;2023-04-15T02:14:29;100134.2;;;3.78;100.0
64025;BME280;50266;57.446;26.936;2023-04-15T02:15:29;100138.73;;;3.78;100.0
64025;BME280;50266;57.446;26.936;2023-04-15T02:16:29;100137.89;;;3.83;100.0
64025;BME280;50266;57.446;26.936;2023-04-15T02:17:32;100139.33;;;3.79;100.0
64025;BME280;50266;57.446;26.936;2023-04-15T02:18:29;100139.87;;;3.77;100.0
64025;BME280;50266;57.446;26.936;2023-04-15T02:19:29;100143.79;;;3.8;100.0
64025;BME280;50266;57.446;26.936;2023-04-15T02:20:29;100141.55;;;3.78;100.0
64025;BME280;50266;57.446;26.936;2023-04-15T02:21:29;100139.12;;;3.82;100.0
64025;BME280;50266;57.446;26.936;2023-04-15T02:22:29;100142.45;;;3.79;100.0
64025;BME280;50266;57.446;26.936;2023-04-15T02:23:29;100141.96;;;3.77;100.0
64025;BME280;50266;57.446;26.936;2023-04-15T02:24:29;100138.61;;;3.81;100.0
64025;BME280;50266;57.446;26.936;2023-04-15T02:25:29;100142.92;;;3.79;100.0
64025;BME280;50266;57.446;26.936;2023-04-15T02:26:29;100141.47;;;3.77;100.0
64025;BME280;50266;57.446;26.936;2023-04-15T02:27:29;100142.33;;;3.77;100.0
64025;BME280;50266;57.446;26.936;2023-04-15T02:28:29;100141.81;;;3.76;100.0
64025;BME280;50266;57.446;26.936;2023-04-15T02:29:30;100140.2;;;3.77;100.0
64025;BME280;50266;57.446;26.936;2023-04-15T02:30:29;100143.52;;;3.8;100.0
64025;BME280;50266;57.446;26.936;2023-04-15T02:31:29;100139.41;;;3.78;100.0
64025;BME280;50266;57.446;26.936;2023-04-15T02:32:29;100145.29;;;3.77;100.0
64025;BME280;50266;57.446;26.936;2023-04-15T02:33:30;100146.58;;;3.76;100.0
64025;BME280;50266;57.446;26.936;2023-04-15T02:34:30;100145.58;;;3.81;100.0
64025;BME280;50266;57.446;26.936;2023-04-15T02:35:30;100147.47;;;3.8;100.0
64025;BME280;50266;57.446;26.936;2023-04-15T02:36:30;100145.64;;;3.78;100.0
64025;BME280;50266;57.446;26.936;2023-04-15T02:37:30;100147.69;;;3.84;100.0
64025;BME280;50266;57.446;26.936;2023-04-15T02:38:30;100146.0;;;3.85;100.0
64025;BME280;50266;57.446;26.936;2023-04-15T02:39:30;100148.12;;;3.78;100.0
64025;BME280;50266;57.446;26.936;2023-04-15T02:40:30;100141.02;;;3.79;100.0
64025;BME280;50266;57.446;26.936;2023-04-15T02:41:30;100145.7;;;3.72;100.0
64025;BME280;50266;57.446;26.936;2023-04-15T02:42:30;100142.27;;;3.75;100.0
64025;BME280;50266;57.446;26.936;2023-04-15T02:43:30;100147.66;;;3.79;100.0
64025;BME280;50266;57.446;26.936;2023-04-15T02:44:30;100148.72;;;3.78;100.0
64025;BME280;50266;57.446;26.936;2023-04-15T02:45:30;100143.81;;;3.77;100.0
64025;BME280;50266;57.446;26.936;2023-04-15T02:46:30;100145.27;;;3.8;100.0
64025;BME280;50266;57.446;26.936;2023-04-15T02:47:30;100145.06;;;3.82;100.0
64025;BME280;50266;57.446;26.936;2023-04-15T02:48:30;100144.42;;;3.83;100.0
64025;BME280;50266;57.446;26.936;2023-04-15T02:49:30;100141.75;;;3.8;100.0
64025;BME280;50266;57.446;26.936;2023-04-15T02:50:30;100148.53;;;3.83;100.0
64025;BME280;50266;57.446;26.936;2023-04-15T02:51:30;100150.27;;;3.86;100.0
64025;BME280;50266;57.446;26.936;2023-04-15T02:52:30;100148.48;;;3.82;100.0
64025;BME280;50266;57.446;26.936;2023-04-15T02:53:30;100145.29;;;3.81;100.0
64025;BME280;50266;57.446;26.936;2023-04-15T02:54:30;100149.15;;;3.78;100.0
64025;BME280;50266;57.446;26.936;2023-04-15T02:55:30;100150.11;;;3.77;100.0
64025;BME280;50266;57.446;26.936;2023-04-15T02:56:30;100150.75;;;3.76;100.0
64025;BME280;50266;57.446;26.936;2023-04-15T02:57:30;100150.23;;;3.76;100.0
64025;BME280;50266;57.446;26.936;2023-04-15T02:58:30;100150.36;;;3.78;100.0
64025;BME280;50266;57.446;26.936;2023-04-15T02:59:30;100150.89;;;3.72;100.0
64025;BME280;50266;57.446;26.936;2023-04-15T03:00:30;100150.26;;;3.76;100.0
64025;BME280;50266;57.446;26.936;2023-04-15T03:01:30;100148.47;;;3.75;100.0
64025;BME280;50266;57.446;26.936;2023-04-15T03:02:33;100150.84;;;3.75;100.0
64025;BME280;50266;57.446;26.936;2023-04-15T03:03:30;100155.35;;;3.8;100.0
64025;BME280;50266;57.446;26.936;2023-04-15T03:04:30;100155.92;;;3.77;100.0
64025;BME280;50266;57.446;26.936;2023-04-15T03:05:30;100151.3;;;3.73;100.0
64025;BME280;50266;57.446;26.936;2023-04-15T03:06:30;100152.06;;;3.71;100.0
64025;BME280;50266;57.446;26.936;2023-04-15T03:07:30;100156.41;;;3.68;100.0
64025;BME280;50266;57.446;26.936;2023-04-15T03:08:30;100154.59;;;3.69;100.0
64025;BME280;50266;57.446;26.936;2023-04-15T03:09:30;100155.14;;;3.71;100.0
64025;BME280;50266;57.446;26.936;2023-04-15T03:10:30;100158.38;;;3.75;100.0
64025;BME280;50266;57.446;26.936;2023-04-15T03:11:30;100157.95;;;3.7;100.0
64025;BME280;50266;57.446;26.936;2023-04-15T03:12:30;100162.68;;;3.71;100.0
64025;BME280;50266;57.446;26.936;2023-04-15T03:13:30;100163.01;;;3.69;100.0
64025;BME280;50266;57.446;26.936;2023-04-15T03:14:30;100163.3;;;3.69;100.0
64025;BME280;50266;57.446;26.936;2023-04-15T03:15:31;100165.16;;;3.65;100.0
64025;BME280;50266;57.446;26.936;2023-04-15T03:16:30;100164.17;;;3.62;100.0
64025;BME280;50266;57.446;26.936;2023-04-15T03:17:30;100166.39;;;3.61;100.0
64025;BME280;50266;57.446;26.936;2023-04-15T03:18:30;100166.54;;;3.62;100.0
64025;BME280;50266;57.446;26.936;2023-04-15T03:19:30;100165.86;;;3.63;100.0
64025;BME280;50266;57.446;26.936;2023-04-15T03:20:30;100169.84;;;3.59;100.0
64025;BME280;50266;57.446;26.936;2023-04-15T03:21:30;100170.66;;;3.57;100.0
64025;BME280;50266;57.446;26.936;2023-04-15T03:22:30;100172.94;;;3.58;100.0
64025;BME280;50266;57.446;26.936;2023-04-15T03:23:30;100166.92;;;3.6;100.0
64025;BME280;50266;57.446;26.936;2023-04-15T03:24:30;100171.03;;;3.6;100.0
64025;BME280;50266;57.446;26.936;2023-04-15T03:25:30;100173.23;;;3.58;100.0
64025;BME280;50266;57.446;26.936;2023-04-15T03:26:30;100179.02;;;3.54;100.0
64025;BME280;50266;57.446;26.936;2023-04-15T03:27:30;100174.81;;;3.56;100.0
64025;BME280;50266;57.446;26.936;2023-04-15T03:28:30;100176.04;;;3.57;100.0
64025;BME280;50266;57.446;26.936;2023-04-15T03:29:30;100175.69;;;3.56;100.0
64025;BME280;50266;57.446;26.936;2023-04-15T03:30:30;100177.38;;;3.54;100.0
64025;BME280;50266;57.446;26.936;2023-04-15T03:31:30;100174.7;;;3.53;100.0
64025;BME280;50266;57.446;26.936;2023-04-15T03:32:31;100180.14;;;3.52;100.0
64025;BME280;50266;57.446;26.936;2023-04-15T03:33:31;100182.12;;;3.5;100.0
64025;BME280;50266;57.446;26.936;2023-04-15T03:34:31;100185.67;;;3.5;100.0
64025;BME280;50266;57.446;26.936;2023-04-15T03:35:31;100184.73;;;3.5;100.0
64025;BME280;50266;57.446;26.936;2023-04-15T03:36:31;100183.66;;;3.49;100.0
64025;BME280;50266;57.446;26.936;2023-04-15T03:37:31;100183.66;;;3.47;100.0
64025;BME280;50266;57.446;26.936;2023-04-15T03:38:31;100181.42;;;3.49;100.0
64025;BME280;50266;57.446;26.936;2023-04-15T03:39:31;100184.23;;;3.5;100.0
64025;BME280;50266;57.446;26.936;2023-04-15T03:40:31;100182.77;;;3.5;100.0
64025;BME280;50266;57.446;26.936;2023-04-15T03:41:31;100186.16;;;3.46;100.0
64025;BME280;50266;57.446;26.936;2023-04-15T03:42:31;100186.14;;;3.47;100.0
64025;BME280;50266;57.446;26.936;2023-04-15T03:43:31;100188.52;;;3.45;100.0
64025;BME280;50266;57.446;26.936;2023-04-15T03:44:31;100186.61;;;3.45;100.0
64025;BME280;50266;57.446;26.936;2023-04-15T03:45:31;100189.38;;;3.44;100.0
64025;BME280;50266;57.446;26.936;2023-04-15T03:46:31;100189.99;;;3.41;100.0
64025;BME280;50266;57.446;26.936;2023-04-15T03:47:31;100188.83;;;3.42;100.0
64025;BME280;50266;57.446;26.936;2023-04-15T03:48:31;100184.62;;;3.42;100.0
64025;BME280;50266;57.446;26.936;2023-04-15T03:49:31;100191.17;;;3.43;100.0
64025;BME280;50266;57.446;26.936;2023-04-15T03:50:31;100191.02;;;3.4;100.0
64025;BME280;50266;57.446;26.936;2023-04-15T03:51:31;100187.76;;;3.41;100.0
64025;BME280;50266;57.446;26.936;2023-04-15T03:52:31;100187.88;;;3.37;100.0
64025;BME280;50266;57.446;26.936;2023-04-15T03:53:31;100188.98;;;3.4;100.0
64025;BME280;50266;57.446;26.936;2023-04-15T03:54:31;100192.52;;;3.39;100.0
64025;BME280;50266;57.446;26.936;2023-04-15T03:55:31;100190.25;;;3.44;100.0
64025;BME280;50266;57.446;26.936;2023-04-15T03:56:31;100196.12;;;3.39;100.0
64025;BME280;50266;57.446;26.936;2023-04-15T03:57:31;100192.53;;;3.38;100.0
64025;BME280;50266;57.446;26.936;2023-04-15T03:58:31;100188.06;;;3.4;100.0
64025;BME280;50266;57.446;26.936;2023-04-15T03:59:31;100189.27;;;3.4;100.0
64025;BME280;50266;57.446;26.936;2023-04-15T04:00:31;100192.79;;;3.41;100.0
64025;BME280;50266;57.446;26.936;2023-04-15T04:01:31;100193.43;;;3.44;100.0
64025;BME280;50266;57.446;26.936;2023-04-15T04:02:31;100189.08;;;3.36;100.0
64025;BME280;50266;57.446;26.936;2023-04-15T04:03:31;100192.56;;;3.42;100.0
64025;BME280;50266;57.446;26.936;2023-04-15T04:04:31;100193.96;;;3.45;100.0
64025;BME280;50266;57.446;26.936;2023-04-15T04:05:31;100194.25;;;3.44;100.0
64025;BME280;50266;57.446;26.936;2023-04-15T04:06:32;100196.04;;;3.47;100.0
64025;BME280;50266;57.446;26.936;2023-04-15T04:07:31;100195.36;;;3.44;100.0
64025;BME280;50266;57.446;26.936;2023-04-15T04:08:31;100197.5;;;3.46;100.0
64025;BME280;50266;57.446;26.936;2023-04-15T04:09:31;100194.14;;;3.44;100.0
64025;BME280;50266;57.446;26.936;2023-04-15T04:10:31;100193.38;;;3.44;100.0
64025;BME280;50266;57.446;26.936;2023-04-15T04:11:31;100191.35;;;3.44;100.0
64025;BME280;50266;57.446;26.936;2023-04-15T04:12:31;100194.79;;;3.47;100.0
64025;BME280;50266;57.446;26.936;2023-04-15T04:13:32;100194.09;;;3.48;100.0
64025;BME280;50266;57.446;26.936;2023-04-15T04:14:32;100195.61;;;3.47;100.0
64025;BME280;50266;57.446;26.936;2023-04-15T04:15:32;100198.26;;;3.48;100.0
64025;BME280;50266;57.446;26.936;2023-04-15T04:16:32;100197.0;;;3.46;100.0
64025;BME280;50266;57.446;26.936;2023-04-15T04:17:32;100199.48;;;3.47;100.0
64025;BME280;50266;57.446;26.936;2023-04-15T04:18:32;100197.78;;;3.49;100.0
64025;BME280;50266;57.446;26.936;2023-04-15T04:19:32;100196.86;;;3.49;100.0
64025;BME280;50266;57.446;26.936;2023-04-15T04:20:32;100199.16;;;3.49;100.0
64025;BME280;50266;57.446;26.936;2023-04-15T04:21:32;100197.42;;;3.49;100.0
64025;BME280;50266;57.446;26.936;2023-04-15T04:22:36;100201.69;;;3.49;100.0
64025;BME280;50266;57.446;26.936;2023-04-15T04:23:32;100197.91;;;3.51;100.0
64025;BME280;50266;57.446;26.936;2023-04-15T04:24:32;100200.22;;;3.53;100.0
64025;BME280;50266;57.446;26.936;2023-04-15T04:25:32;100197.16;;;3.53;100.0
64025;BME280;50266;57.446;26.936;2023-04-15T04:26:32;100196.67;;;3.55;100.0
64025;BME280;50266;57.446;26.936;2023-04-15T04:27:33;100191.96;;;3.52;100.0
64025;BME280;50266;57.446;26.936;2023-04-15T04:28:32;100199.18;;;3.56;100.0
64025;BME280;50266;57.446;26.936;2023-04-15T04:29:32;100199.34;;;3.56;100.0
64025;BME280;50266;57.446;26.936;2023-04-15T04:30:33;100195.34;;;3.56;100.0
64025;BME280;50266;57.446;26.936;2023-04-15T04:31:32;100199.47;;;3.57;100.0
64025;BME280;50266;57.446;26.936;2023-04-15T04:32:32;100205.16;;;3.55;100.0
64025;BME280;50266;57.446;26.936;2023-04-15T04:33:32;100199.94;;;3.54;100.0
64025;BME280;50266;57.446;26.936;2023-04-15T04:34:32;100200.53;;;3.56;100.0
64025;BME280;50266;57.446;26.936;2023-04-15T04:35:32;100201.61;;;3.57;100.0
64025;BME280;50266;57.446;26.936;2023-04-15T04:36:32;100199.33;;;3.58;100.0
64025;BME280;50266;57.446;26.936;2023-04-15T04:37:32;100202.81;;;3.59;100.0
64025;BME280;50266;57.446;26.936;2023-04-15T04:38:32;100202.27;;;3.59;100.0
64025;BME280;50266;57.446;26.936;2023-04-15T04:39:32;100200.95;;;3.59;100.0
64025;BME280;50266;57.446;26.936;2023-04-15T04:40:32;100198.77;;;3.59;100.0
64025;BME280;50266;57.446;26.936;2023-04-15T04:41:32;100203.02;;;3.57;100.0
64025;BME280;50266;57.446;26.936;2023-04-15T04:42:32;100201.89;;;3.57;100.0
64025;BME280;50266;57.446;26.936;2023-04-15T04:43:32;100204.03;;;3.57;100.0
64025;BME280;50266;57.446;26.936;2023-04-15T04:44:32;100203.86;;;3.57;100.0
64025;BME280;50266;57.446;26.936;2023-04-15T04:45:32;100201.84;;;3.59;100.0
64025;BME280;50266;57.446;26.936;2023-04-15T04:46:32;100204.11;;;3.6;100.0
64025;BME280;50266;57.446;26.936;2023-04-15T04:47:33;100203.87;;;3.61;100.0
64025;BME280;50266;57.446;26.936;2023-04-15T04:48:33;100203.44;;;3.6;100.0
64025;BME280;50266;57.446;26.936;2023-04-15T04:49:33;100203.44;;;3.6;100.0
64025;BME280;50266;57.446;26.936;2023-04-15T04:50:33;100203.16;;;3.63;100.0
64025;BME280;50266;57.446;26.936;2023-04-15T04:51:33;100204.02;;;3.63;100.0
64025;BME280;50266;57.446;26.936;2023-04-15T04:52:33;100200.55;;;3.68;100.0
64025;BME280;50266;57.446;26.936;2023-04-15T04:53:33;100200.73;;;3.66;100.0
64025;BME280;50266;57.446;26.936;2023-04-15T04:54:33;100204.92;;;3.69;100.0
64025;BME280;50266;57.446;26.936;2023-04-15T04:55:33;100203.09;;;3.71;100.0
64025;BME280;50266;57.446;26.936;2023-04-15T04:56:33;100204.45;;;3.72;100.0
64025;BME280;50266;57.446;26.936;2023-04-15T04:57:33;100205.5;;;3.74;100.0
64025;BME280;50266;57.446;26.936;2023-04-15T04:58:33;100205.42;;;3.75;100.0
64025;BME280;50266;57.446;26.936;2023-04-15T04:59:33;100211.45;;;3.75;100.0
64025;BME280;50266;57.446;26.936;2023-04-15T05:00:33;100204.5;;;3.77;100.0
64025;BME280;50266;57.446;26.936;2023-04-15T05:01:33;100202.72;;;3.78;100.0
64025;BME280;50266;57.446;26.936;2023-04-15T05:02:33;100208.7;;;3.76;100.0
64025;BME280;50266;57.446;26.936;2023-04-15T05:03:33;100207.81;;;3.8;100.0
64025;BME280;50266;57.446;26.936;2023-04-15T05:04:33;100207.73;;;3.81;100.0
64025;BME280;50266;57.446;26.936;2023-04-15T05:05:33;100208.08;;;3.8;100.0
64025;BME280;50266;57.446;26.936;2023-04-15T05:06:33;100209.09;;;3.8;100.0
64025;BME280;50266;57.446;26.936;2023-04-15T05:07:33;100207.09;;;3.8;100.0
64025;BME280;50266;57.446;26.936;2023-04-15T05:08:33;100211.25;;;3.85;100.0
64025;BME280;50266;57.446;26.936;2023-04-15T05:09:33;100208.66;;;3.84;100.0
64025;BME280;50266;57.446;26.936;2023-04-15T05:10:33;100207.9;;;3.89;100.0
64025;BME280;50266;57.446;26.936;2023-04-15T05:11:33;100210.47;;;3.98;100.0
64025;BME280;50266;57.446;26.936;2023-04-15T05:12:33;100211.22;;;3.94;100.0
64025;BME280;50266;57.446;26.936;2023-04-15T05:13:33;100206.18;;;3.95;100.0
64025;BME280;50266;57.446;26.936;2023-04-15T05:14:33;100211.05;;;3.99;100.0